Time;durP1;ratioP1;P1;durP2;ratioP2;P2;SDS_P1;SDS_P2;PMS_P1;PMS_P2;Temp;Humidity;BMP_temperature;BMP_pressure;BME280_temperature;BME280_humidity;BME280_pressure;Samples;Min_cycle;Max_cycle;Signal;HPM_P1;HPM_P2
2021/09/18 00:01:33;;;;;;;11.85;10.65;;;;;;;;;;4699456;30;20214;-84
2021/09/18 00:04:05;;;;;;;14.85;12.15;;;;;;;;;;4699208;30;20225;-83
2021/09/18 00:06:33;;;;;;;14.55;12.43;;;;;;;;;;4699308;30;20221;-83
2021/09/18 00:09:00;;;;;;;13.73;11.32;;;;;;;;;;4699550;30;20577;-83
2021/09/18 00:11:29;;;;;;;7.97;7.18;;;;;;;;;;4699400;30;20227;-82
2021/09/18 00:13:58;;;;;;;5.20;4.70;;;;;;;;;;4699577;30;20590;-83
2021/09/18 00:16:26;;;;;;;5.03;4.60;;;;;;;;;;4699701;30;20195;-83
2021/09/18 00:18:54;;;;;;;6.10;5.50;;;;;;;;;;4703041;30;20222;-83
2021/09/18 00:21:23;;;;;;;5.07;4.63;;;;;;;;;;4702625;30;20210;-83
2021/09/18 00:23:54;;;;;;;4.97;4.57;;;;;;;;;;4702464;30;20714;-83
2021/09/18 00:26:22;;;;;;;4.35;3.95;;;;;;;;;;4702531;30;20218;-83
2021/09/18 00:28:55;;;;;;;4.88;4.43;;;;;;;;;;4702989;30;20202;-83
2021/09/18 00:31:22;;;;;;;4.60;4.20;;;;;;;;;;4702498;30;20198;-83
2021/09/18 00:33:50;;;;;;;5.03;4.63;;;;;;;;;;4715389;30;20217;-83
2021/09/18 00:36:18;;;;;;;6.00;5.53;;;;;;;;;;4703735;30;20218;-84
2021/09/18 00:38:47;;;;;;;6.55;5.95;;;;;;;;;;4702292;30;20246;-82
2021/09/18 00:41:15;;;;;;;6.78;6.18;;;;;;;;;;4702457;30;20209;-82
2021/09/18 00:43:42;;;;;;;5.90;5.40;;;;;;;;;;4702716;30;20222;-82
2021/09/18 00:46:10;;;;;;;5.70;5.10;;;;;;;;;;4702300;30;20671;-83
2021/09/18 00:48:37;;;;;;;7.57;6.88;;;;;;;;;;4702515;30;20245;-83
2021/09/18 00:51:05;;;;;;;9.43;8.57;;;;;;;;;;4702366;30;20221;-83
2021/09/18 00:53:32;;;;;;;10.48;8.77;;;;;;;;;;4702333;30;20666;-82
2021/09/18 00:56:02;;;;;;;11.73;10.10;;;;;;;;;;4701813;30;20199;-83
2021/09/18 00:58:29;;;;;;;13.40;11.98;;;;;;;;;;4701721;30;20242;-83
2021/09/18 01:00:56;;;;;;;10.23;9.15;;;;;;;;;;4701998;30;20215;-83
2021/09/18 01:03:24;;;;;;;10.48;9.40;;;;;;;;;;4702074;30;20245;-82
2021/09/18 01:05:51;;;;;;;10.13;9.13;;;;;;;;;;4702244;30;20203;-83
2021/09/18 01:08:22;;;;;;;10.30;9.30;;;;;;;;;;4702101;30;20238;-83
2021/09/18 01:10:50;;;;;;;11.25;9.88;;;;;;;;;;4702057;30;20207;-83
2021/09/18 01:13:20;;;;;;;11.25;10.15;;;;;;;;;;4701862;30;20214;-85
2021/09/18 01:15:50;;;;;;;13.50;12.10;;;;;;;;;;4701723;30;20227;-83
2021/09/18 01:18:18;;;;;;;11.70;10.55;;;;;;;;;;4701786;30;20242;-82
2021/09/18 01:20:49;;;;;;;12.75;11.23;;;;;;;;;;4701260;30;20207;-83
2021/09/18 01:23:23;;;;;;;12.07;10.30;;;;;;;;;;4702107;30;20218;-83
2021/09/18 01:25:51;;;;;;;12.18;10.05;;;;;;;;;;4701681;30;20198;-82
2021/09/18 01:28:19;;;;;;;10.07;9.05;;;;;;;;;;4700868;30;20234;-82
2021/09/18 01:30:46;;;;;;;11.32;9.95;;;;;;;;;;4693258;30;20211;-83
2021/09/18 01:33:14;;;;;;;10.48;9.40;;;;;;;;;;4687382;30;20206;-82
2021/09/18 01:35:43;;;;;;;13.23;11.35;;;;;;;;;;4701798;30;20199;-83
2021/09/18 01:38:11;;;;;;;13.93;12.45;;;;;;;;;;4701192;30;20247;-84
2021/09/18 01:40:43;;;;;;;17.30;13.43;;;;;;;;;;4701797;30;20621;-82
2021/09/18 01:43:11;;;;;;;14.30;11.60;;;;;;;;;;4701738;30;20238;-84
2021/09/18 01:45:40;;;;;;;14.82;13.18;;;;;;;;;;4702058;30;20251;-83
2021/09/18 01:48:10;;;;;;;15.68;13.95;;;;;;;;;;4699975;30;20813;-82
2021/09/18 01:50:42;;;;;;;16.25;14.52;;;;;;;;;;4691655;30;20206;-84
2021/09/18 01:53:10;;;;;;;14.38;12.88;;;;;;;;;;4701343;30;20203;-82
2021/09/18 01:55:39;;;;;;;17.40;14.25;;;;;;;;;;4700945;30;20201;-82
2021/09/18 01:58:07;;;;;;;15.48;13.38;;;;;;;;;;4701020;30;20245;-83
2021/09/18 02:00:39;;;;;;;16.08;14.38;;;;;;;;;;4691166;30;20246;-83
2021/09/18 02:03:06;;;;;;;16.05;14.45;;;;;;;;;;4701025;30;20219;-83
2021/09/18 02:05:34;;;;;;;12.77;11.48;;;;;;;;;;4701255;30;20199;-83
2021/09/18 02:08:01;;;;;;;17.88;14.38;;;;;;;;;;4700531;30;20230;-83
2021/09/18 02:10:30;;;;;;;13.80;11.98;;;;;;;;;;4700842;30;20207;-83
2021/09/18 02:13:01;;;;;;;11.70;10.50;;;;;;;;;;4701415;30;20570;-83
2021/09/18 02:15:29;;;;;;;9.68;8.68;;;;;;;;;;4701433;30;20202;-83
2021/09/18 02:17:57;;;;;;;11.45;10.30;;;;;;;;;;4701477;30;20240;-83
2021/09/18 02:20:28;;;;;;;11.55;9.95;;;;;;;;;;4701263;30;20194;-84
2021/09/18 02:22:56;;;;;;;14.50;13.00;;;;;;;;;;4701226;30;20215;-83
2021/09/18 02:25:23;;;;;;;13.15;11.50;;;;;;;;;;4701409;30;20222;-83
2021/09/18 02:27:52;;;;;;;14.55;12.98;;;;;;;;;;4701115;30;20615;-82
2021/09/18 02:30:25;;;;;;;12.55;11.15;;;;;;;;;;4700181;30;20623;-83
2021/09/18 02:32:53;;;;;;;12.07;10.70;;;;;;;;;;4701156;30;20202;-83
2021/09/18 02:35:23;;;;;;;10.57;9.57;;;;;;;;;;4701283;30;20202;-84
2021/09/18 02:37:52;;;;;;;7.45;6.75;;;;;;;;;;4701013;30;20249;-83
2021/09/18 02:40:22;;;;;;;7.90;7.20;;;;;;;;;;4695249;30;20938;-83
2021/09/18 02:42:51;;;;;;;7.38;6.57;;;;;;;;;;4684271;30;20199;-84
2021/09/18 02:45:21;;;;;;;7.32;6.45;;;;;;;;;;4684108;30;20223;-83
2021/09/18 02:47:49;;;;;;;4.80;4.40;;;;;;;;;;4692170;30;20242;-82
2021/09/18 02:50:19;;;;;;;6.18;5.05;;;;;;;;;;4701055;30;20257;-83
2021/09/18 02:52:47;;;;;;;6.43;5.82;;;;;;;;;;4700578;30;20199;-84
2021/09/18 02:55:16;;;;;;;6.32;5.68;;;;;;;;;;4700277;30;20222;-83
2021/09/18 02:57:44;;;;;;;8.45;6.95;;;;;;;;;;4692485;30;20306;-83
2021/09/18 03:00:14;;;;;;;6.43;5.82;;;;;;;;;;4687923;30;20211;-82
2021/09/18 03:02:43;;;;;;;7.75;7.05;;;;;;;;;;4700671;30;20677;-82
2021/09/18 03:05:11;;;;;;;6.85;6.15;;;;;;;;;;4700820;30;20225;-84
2021/09/18 03:07:39;;;;;;;7.88;7.13;;;;;;;;;;4702394;30;20234;-84
2021/09/18 03:10:10;;;;;;;6.90;6.22;;;;;;;;;;4701341;30;20205;-84
2021/09/18 03:12:39;;;;;;;6.70;6.07;;;;;;;;;;4702174;30;20217;-85
2021/09/18 03:15:08;;;;;;;7.32;6.55;;;;;;;;;;4702270;30;20206;-84
2021/09/18 03:17:36;;;;;;;8.60;7.80;;;;;;;;;;4701436;30;20741;-85
2021/09/18 03:20:06;;;;;;;6.85;6.20;;;;;;;;;;4703024;30;20569;-84
2021/09/18 03:22:34;;;;;;;7.70;6.90;;;;;;;;;;4703267;30;20190;-85
2021/09/18 03:25:01;;;;;;;9.80;8.85;;;;;;;;;;4696751;30;20216;-84
2021/09/18 03:27:29;;;;;;;14.73;11.52;;;;;;;;;;4684365;30;20331;-85
2021/09/18 03:29:56;;;;;;;14.18;11.80;;;;;;;;;;4683971;30;20212;-84
2021/09/18 03:32:24;;;;;;;13.13;11.32;;;;;;;;;;4684069;30;20196;-84
2021/09/18 03:34:51;;;;;;;10.57;9.18;;;;;;;;;;4689885;30;20710;-84
2021/09/18 03:37:21;;;;;;;12.68;11.38;;;;;;;;;;4702863;30;20231;-85
2021/09/18 03:39:48;;;;;;;12.90;11.50;;;;;;;;;;4703297;30;20246;-84
2021/09/18 03:42:16;;;;;;;14.32;11.43;;;;;;;;;;4703638;30;20218;-84
2021/09/18 03:44:45;;;;;;;13.57;11.35;;;;;;;;;;4687647;30;20234;-84
2021/09/18 03:47:12;;;;;;;12.95;10.25;;;;;;;;;;4687076;30;20274;-85
2021/09/18 03:49:40;;;;;;;13.85;12.43;;;;;;;;;;4686924;30;20219;-84
2021/09/18 03:52:07;;;;;;;12.30;11.05;;;;;;;;;;4685096;30;20402;-84
2021/09/18 03:54:36;;;;;;;13.90;12.38;;;;;;;;;;4700125;30;20206;-84
2021/09/18 03:57:04;;;;;;;13.20;11.88;;;;;;;;;;4703292;30;20242;-84
2021/09/18 03:59:31;;;;;;;15.23;13.63;;;;;;;;;;4691602;30;20203;-84
2021/09/18 04:01:58;;;;;;;16.45;14.40;;;;;;;;;;4685178;30;20199;-84
2021/09/18 04:04:26;;;;;;;19.85;14.90;;;;;;;;;;4684602;30;20218;-83
2021/09/18 04:06:53;;;;;;;14.10;12.70;;;;;;;;;;4684910;30;20737;-84
2021/09/18 04:09:21;;;;;;;17.38;13.77;;;;;;;;;;4685005;30;20219;-84
2021/09/18 04:11:50;;;;;;;14.15;12.65;;;;;;;;;;4684832;30;20221;-83
2021/09/18 04:14:18;;;;;;;16.70;14.57;;;;;;;;;;4697895;30;20203;-84
2021/09/18 04:16:45;;;;;;;14.40;12.30;;;;;;;;;;4702985;30;20321;-83
2021/09/18 04:19:13;;;;;;;10.98;9.93;;;;;;;;;;4702666;30;20210;-83
2021/09/18 04:21:40;;;;;;;14.30;12.13;;;;;;;;;;4701107;30;20206;-84
2021/09/18 04:24:08;;;;;;;13.30;10.90;;;;;;;;;;4691862;30;20211;-84
2021/09/18 04:26:36;;;;;;;14.70;11.65;;;;;;;;;;4685267;30;20226;-84
2021/09/18 04:29:05;;;;;;;15.10;11.57;;;;;;;;;;4685380;30;20207;-84
2021/09/18 04:31:33;;;;;;;19.63;14.93;;;;;;;;;;4685316;30;20218;-85
2021/09/18 04:34:00;;;;;;;17.50;15.05;;;;;;;;;;4684767;30;20215;-85
2021/09/18 04:36:28;;;;;;;16.60;14.45;;;;;;;;;;4683607;30;20215;-84
2021/09/18 04:38:55;;;;;;;17.45;15.65;;;;;;;;;;4687086;30;20242;-85
2021/09/18 04:41:23;;;;;;;19.23;16.95;;;;;;;;;;4683202;30;20207;-85
2021/09/18 04:43:51;;;;;;;20.08;15.98;;;;;;;;;;4681919;30;20222;-85
2021/09/18 04:46:20;;;;;;;17.90;15.63;;;;;;;;;;4681682;30;20337;-84
2021/09/18 04:48:48;;;;;;;17.23;15.50;;;;;;;;;;4682846;30;20199;-84
2021/09/18 04:51:15;;;;;;;14.88;13.25;;;;;;;;;;4682870;30;20215;-84
2021/09/18 04:53:43;;;;;;;15.55;13.88;;;;;;;;;;4682859;30;20216;-84
2021/09/18 04:56:10;;;;;;;14.15;12.65;;;;;;;;;;4683350;30;20667;-84
2021/09/18 04:58:38;;;;;;;18.52;14.60;;;;;;;;;;4682068;30;20228;-84
2021/09/18 05:01:05;;;;;;;18.83;15.57;;;;;;;;;;4682586;30;20208;-85
2021/09/18 05:03:34;;;;;;;15.55;13.70;;;;;;;;;;4683933;30;20215;-84
2021/09/18 05:06:01;;;;;;;16.10;14.43;;;;;;;;;;4685236;30;20242;-85
2021/09/18 05:08:29;;;;;;;16.02;13.05;;;;;;;;;;4684754;30;20243;-84
2021/09/18 05:10:56;;;;;;;17.05;14.38;;;;;;;;;;4683466;30;20208;-84
2021/09/18 05:13:24;;;;;;;12.38;11.07;;;;;;;;;;4684779;30;20204;-84
2021/09/18 05:15:51;;;;;;;12.45;11.23;;;;;;;;;;4684639;30;20196;-84
2021/09/18 05:18:18;;;;;;;10.65;9.52;;;;;;;;;;4684271;30;20235;-84
2021/09/18 05:20:47;;;;;;;13.93;11.45;;;;;;;;;;4684726;30;20200;-83
2021/09/18 05:23:15;;;;;;;14.65;13.13;;;;;;;;;;4698774;30;20202;-84
2021/09/18 05:25:42;;;;;;;15.93;14.25;;;;;;;;;;4701524;30;20242;-84
2021/09/18 05:28:10;;;;;;;13.07;11.68;;;;;;;;;;4701046;30;20249;-84
2021/09/18 05:30:37;;;;;;;12.77;11.55;;;;;;;;;;4693698;30;20219;-85
2021/09/18 05:33:05;;;;;;;13.00;11.63;;;;;;;;;;4683803;30;20188;-84
2021/09/18 05:35:32;;;;;;;8.50;7.50;;;;;;;;;;4684405;30;20210;-84
2021/09/18 05:38:01;;;;;;;12.15;10.95;;;;;;;;;;4683667;30;20255;-85
2021/09/18 05:40:28;;;;;;;10.75;9.55;;;;;;;;;;4701322;30;20223;-85
2021/09/18 05:42:56;;;;;;;9.43;8.45;;;;;;;;;;4700472;30;20218;-86
2021/09/18 05:45:24;;;;;;;10.00;9.07;;;;;;;;;;4701058;30;20199;-85
2021/09/18 05:47:52;;;;;;;11.85;10.65;;;;;;;;;;4700738;30;20249;-85
2021/09/18 05:50:19;;;;;;;10.50;9.43;;;;;;;;;;4698331;30;20214;-85
2021/09/18 05:52:47;;;;;;;9.65;8.80;;;;;;;;;;4690397;30;20214;-85
2021/09/18 05:55:15;;;;;;;9.63;8.73;;;;;;;;;;4688956;30;20294;-85
2021/09/18 05:57:43;;;;;;;11.43;10.23;;;;;;;;;;4693093;30;20227;-86
2021/09/18 06:00:11;;;;;;;6.60;6.03;;;;;;;;;;4697423;30;20217;-84
2021/09/18 06:02:41;;;;;;;11.18;10.07;;;;;;;;;;4700525;30;20221;-86
2021/09/18 06:05:10;;;;;;;11.77;10.57;;;;;;;;;;4692850;30;20211;-85
2021/09/18 06:07:38;;;;;;;13.65;11.82;;;;;;;;;;4683187;30;20239;-86
2021/09/18 06:10:07;;;;;;;7.97;7.20;;;;;;;;;;4683255;30;20215;-85
2021/09/18 06:12:35;;;;;;;11.45;10.30;;;;;;;;;;4683727;30;20206;-84
2021/09/18 06:15:03;;;;;;;9.70;8.70;;;;;;;;;;4686186;30;20210;-84
2021/09/18 06:17:30;;;;;;;12.18;10.57;;;;;;;;;;4691908;30;20227;-85
2021/09/18 06:19:58;;;;;;;10.02;9.02;;;;;;;;;;4683196;30;20615;-86
2021/09/18 06:22:25;;;;;;;9.70;8.70;;;;;;;;;;4683596;30;20200;-86
2021/09/18 06:24:53;;;;;;;9.50;8.57;;;;;;;;;;4683032;30;20219;-86
2021/09/18 06:27:20;;;;;;;9.43;8.10;;;;;;;;;;4682918;30;20250;-85
2021/09/18 06:29:49;;;;;;;8.45;7.68;;;;;;;;;;4683253;30;20194;-84
2021/09/18 06:32:16;;;;;;;11.05;9.57;;;;;;;;;;4683155;30;20211;-85
2021/09/18 06:34:44;;;;;;;7.63;6.28;;;;;;;;;;4682232;30;20215;-84
2021/09/18 06:37:11;;;;;;;7.05;6.35;;;;;;;;;;4682200;30;20241;-85
2021/09/18 06:39:39;;;;;;;6.97;6.28;;;;;;;;;;4681223;30;20250;-85
2021/09/18 06:42:06;;;;;;;7.65;6.95;;;;;;;;;;4692509;30;20222;-85
2021/09/18 06:44:37;;;;;;;9.13;8.23;;;;;;;;;;4685445;30;20218;-86
2021/09/18 06:47:07;;;;;;;9.88;8.70;;;;;;;;;;4693434;30;20266;-87
2021/09/18 06:49:37;;;;;;;8.43;7.60;;;;;;;;;;4699871;30;20701;-86
2021/09/18 06:52:06;;;;;;;7.57;6.88;;;;;;;;;;4699989;30;20198;-89
2021/09/18 06:54:34;;;;;;;9.15;8.25;;;;;;;;;;4699118;30;20194;-87
2021/09/18 06:57:01;;;;;;;11.13;9.40;;;;;;;;;;4700109;30;20651;-86
2021/09/18 06:59:29;;;;;;;9.38;8.38;;;;;;;;;;4700244;30;20579;-86
2021/09/18 07:01:56;;;;;;;11.18;7.85;;;;;;;;;;4699903;30;20214;-85
2021/09/18 07:04:25;;;;;;;5.85;5.35;;;;;;;;;;4699654;30;20214;-85
2021/09/18 07:06:52;;;;;;;7.65;6.80;;;;;;;;;;4699662;30;20241;-86
2021/09/18 07:09:20;;;;;;;8.40;7.28;;;;;;;;;;4689595;30;20214;-85
2021/09/18 07:11:48;;;;;;;7.97;7.20;;;;;;;;;;4699780;30;20640;-86
2021/09/18 07:14:15;;;;;;;8.05;7.25;;;;;;;;;;4700055;30;20198;-85
2021/09/18 07:16:42;;;;;;;8.25;7.28;;;;;;;;;;4699279;30;20245;-86
2021/09/18 07:19:10;;;;;;;8.23;7.18;;;;;;;;;;4699152;30;20195;-87
2021/09/18 07:21:39;;;;;;;9.00;7.97;;;;;;;;;;4697568;30;20214;-85
2021/09/18 07:24:07;;;;;;;8.82;7.78;;;;;;;;;;4699710;30;20571;-85
2021/09/18 07:26:34;;;;;;;6.38;5.78;;;;;;;;;;4696473;30;20230;-86
2021/09/18 07:29:02;;;;;;;9.27;8.38;;;;;;;;;;4698689;30;20422;-86
2021/09/18 07:31:30;;;;;;;8.27;7.47;;;;;;;;;;4694939;30;20726;-86
2021/09/18 07:33:57;;;;;;;8.88;7.97;;;;;;;;;;4698739;30;20214;-85
2021/09/18 07:36:25;;;;;;;7.55;6.72;;;;;;;;;;4698756;30;20214;-86
2021/09/18 07:38:53;;;;;;;9.70;7.88;;;;;;;;;;4698112;30;20239;-87
2021/09/18 07:41:21;;;;;;;8.10;7.32;;;;;;;;;;4698024;30;20203;-85
2021/09/18 07:43:49;;;;;;;6.80;6.10;;;;;;;;;;4699409;30;20211;-86
2021/09/18 07:46:16;;;;;;;7.80;7.00;;;;;;;;;;4699354;30;20221;-86
2021/09/18 07:48:43;;;;;;;8.65;7.85;;;;;;;;;;4699326;30;20246;-86
2021/09/18 07:51:11;;;;;;;8.38;7.53;;;;;;;;;;4699122;30;20203;-86
2021/09/18 07:53:38;;;;;;;6.93;6.15;;;;;;;;;;4699042;30;20218;-86
2021/09/18 07:56:07;;;;;;;9.02;8.13;;;;;;;;;;4699058;30;20223;-86
2021/09/18 07:58:34;;;;;;;9.05;7.93;;;;;;;;;;4699066;30;20231;-86
2021/09/18 08:01:02;;;;;;;10.77;9.68;;;;;;;;;;4699333;30;20214;-86
2021/09/18 08:03:29;;;;;;;9.98;8.98;;;;;;;;;;4698912;30;20218;-85
2021/09/18 08:05:56;;;;;;;8.32;7.55;;;;;;;;;;4698718;30;20589;-85
2021/09/18 08:08:24;;;;;;;7.53;6.82;;;;;;;;;;4698601;30;20234;-86
2021/09/18 08:10:51;;;;;;;7.72;6.93;;;;;;;;;;4698956;30;20229;-86
2021/09/18 08:13:20;;;;;;;8.10;7.30;;;;;;;;;;4699074;30;20214;-87
2021/09/18 08:15:47;;;;;;;6.80;6.07;;;;;;;;;;4699009;30;20217;-87
2021/09/18 08:18:15;;;;;;;7.75;7.00;;;;;;;;;;4698833;30;20711;-87
2021/09/18 08:20:42;;;;;;;7.30;6.68;;;;;;;;;;4698934;30;20218;-86
2021/09/18 08:23:10;;;;;;;6.82;6.22;;;;;;;;;;4698856;30;20237;-86
2021/09/18 08:25:37;;;;;;;7.35;6.75;;;;;;;;;;4698768;30;20218;-86
2021/09/18 08:28:05;;;;;;;8.23;6.57;;;;;;;;;;4698724;30;20241;-87
2021/09/18 08:30:35;;;;;;;7.35;6.65;;;;;;;;;;4698869;30;20225;-87
2021/09/18 08:33:03;;;;;;;7.18;6.25;;;;;;;;;;4698895;30;20222;-87
2021/09/18 08:35:30;;;;;;;6.70;6.03;;;;;;;;;;4698750;30;20218;-88
2021/09/18 08:37:57;;;;;;;6.45;5.82;;;;;;;;;;4699573;30;20714;-86
2021/09/18 08:40:27;;;;;;;6.32;5.72;;;;;;;;;;4702273;30;20214;-87
2021/09/18 08:42:56;;;;;;;6.15;5.13;;;;;;;;;;4701598;30;20679;-86
2021/09/18 08:45:23;;;;;;;7.40;5.65;;;;;;;;;;4701908;30;20671;-86
2021/09/18 08:47:52;;;;;;;6.57;5.78;;;;;;;;;;4701420;30;20242;-87
2021/09/18 08:50:22;;;;;;;5.25;4.75;;;;;;;;;;4702080;30;20215;-87
2021/09/18 08:52:52;;;;;;;5.28;4.80;;;;;;;;;;4701938;30;20219;-86
2021/09/18 08:55:19;;;;;;;6.07;5.47;;;;;;;;;;4701995;30;20215;-87
2021/09/18 08:57:46;;;;;;;6.55;4.72;;;;;;;;;;4701613;30;20226;-87
2021/09/18 09:00:43;;;;;;;4.47;4.03;;;;;;;;;;4701850;30;20672;-87
2021/09/18 09:03:13;;;;;;;5.50;5.00;;;;;;;;;;4697867;30;20285;-87
2021/09/18 09:05:43;;;;;;;6.15;5.55;;;;;;;;;;4701911;30;20215;-87
2021/09/18 09:08:12;;;;;;;5.38;4.88;;;;;;;;;;4702044;30;20242;-87
2021/09/18 09:10:43;;;;;;;4.97;4.57;;;;;;;;;;4701991;30;20667;-87
2021/09/18 09:13:13;;;;;;;6.00;5.45;;;;;;;;;;4701948;30;20597;-86
2021/09/18 09:15:42;;;;;;;6.28;5.63;;;;;;;;;;4701765;30;20202;-86
2021/09/18 09:18:20;;;;;;;4.80;4.38;;;;;;;;;;4701657;30;20822;-87
2021/09/18 09:20:49;;;;;;;3.85;3.45;;;;;;;;;;4701725;30;20221;-87
2021/09/18 09:23:18;;;;;;;2.65;2.45;;;;;;;;;;4701701;30;20203;-87
2021/09/18 09:25:50;;;;;;;3.97;3.65;;;;;;;;;;4701844;30;20229;-87
2021/09/18 09:28:30;;;;;;;4.25;3.50;;;;;;;;;;4701427;30;20245;-87
2021/09/18 09:31:14;;;;;;;3.80;3.40;;;;;;;;;;4701562;30;20218;-86
2021/09/18 09:34:00;;;;;;;2.28;2.08;;;;;;;;;;4701682;30;20215;-86
2021/09/18 09:36:28;;;;;;;2.33;2.13;;;;;;;;;;4701469;30;20623;-86
2021/09/18 09:38:58;;;;;;;3.13;2.53;;;;;;;;;;4701115;30;20254;-86
2021/09/18 09:41:32;;;;;;;1.92;1.83;;;;;;;;;;4701197;30;20210;-87
2021/09/18 09:44:00;;;;;;;2.22;2.03;;;;;;;;;;4701684;30;20218;-87
2021/09/18 09:46:28;;;;;;;2.00;1.90;;;;;;;;;;4701040;30;20221;-87
2021/09/18 09:49:10;;;;;;;3.80;1.70;;;;;;;;;;4700818;30;20244;-87
2021/09/18 09:51:38;;;;;;;1.30;1.30;;;;;;;;;;4701765;30;20205;-87
2021/09/18 09:54:24;;;;;;;1.25;1.17;;;;;;;;;;4701316;30;20215;-87
2021/09/18 09:57:10;;;;;;;1.40;1.30;;;;;;;;;;4700944;30;20238;-86
2021/09/18 09:59:38;;;;;;;1.15;1.15;;;;;;;;;;4700841;30;20213;-87
2021/09/18 10:02:08;;;;;;;1.60;1.50;;;;;;;;;;4700922;30;20221;-87
2021/09/18 10:04:37;;;;;;;1.45;1.30;;;;;;;;;;4701700;30;20579;-87
2021/09/18 10:07:06;;;;;;;1.10;1.10;;;;;;;;;;4702435;30;20706;-87
2021/09/18 10:09:36;;;;;;;1.27;1.17;;;;;;;;;;4701464;30;20238;-88
2021/09/18 10:12:05;;;;;;;1.50;1.30;;;;;;;;;;4701057;30;20581;-87
2021/09/18 10:14:33;;;;;;;1.73;1.63;;;;;;;;;;4700943;30;20219;-86
2021/09/18 10:17:01;;;;;;;1.30;1.30;;;;;;;;;;4700581;30;20254;-87
2021/09/18 10:19:55;;;;;;;1.55;1.40;;;;;;;;;;4700626;30;20203;-86
2021/09/18 10:25:18;;;;;;;1.75;1.25;;;;;;;;;;4700643;30;20217;-88
2021/09/18 10:28:08;;;;;;;1.00;1.00;;;;;;;;;;4700345;30;20238;-87
2021/09/18 10:30:39;;;;;;;0.80;0.80;;;;;;;;;;4700689;30;20241;-87
2021/09/18 10:33:08;;;;;;;1.15;1.15;;;;;;;;;;4700992;30;20218;-87
2021/09/18 10:35:54;;;;;;;1.60;1.50;;;;;;;;;;4700356;30;20660;-87
2021/09/18 10:38:26;;;;;;;0.95;0.95;;;;;;;;;;4700131;30;20249;-88
2021/09/18 10:40:59;;;;;;;1.00;1.00;;;;;;;;;;4700470;30;20226;-88
2021/09/18 10:43:30;;;;;;;1.17;1.17;;;;;;;;;;4700535;30;20221;-87
2021/09/18 10:45:58;;;;;;;0.90;0.90;;;;;;;;;;4700674;30;20825;-88
2021/09/18 10:48:49;;;;;;;0.77;0.77;;;;;;;;;;4700029;30;20234;-87
2021/09/18 10:51:40;;;;;;;0.85;0.80;;;;;;;;;;4700174;30;20218;-87
2021/09/18 10:54:16;;;;;;;0.82;0.82;;;;;;;;;;4700142;30;20211;-87
2021/09/18 10:57:01;;;;;;;0.90;0.90;;;;;;;;;;4699858;30;20274;-87
2021/09/18 10:59:55;;;;;;;0.93;0.93;;;;;;;;;;4700315;30;20202;-86
2021/09/18 11:02:46;;;;;;;0.60;0.60;;;;;;;;;;4668714;30;20215;-88
2021/09/18 11:05:56;;;;;;;0.73;0.73;;;;;;;;;;4699827;30;20210;-88
2021/09/18 11:08:37;;;;;;;0.80;0.80;;;;;;;;;;4686929;30;20238;-87
2021/09/18 11:11:13;;;;;;;0.70;0.70;;;;;;;;;;4699870;30;20288;-88
2021/09/18 11:13:44;;;;;;;0.80;0.80;;;;;;;;;;4699956;30;20214;-87
2021/09/18 11:16:24;;;;;;;0.70;0.70;;;;;;;;;;4699917;30;20229;-86
2021/09/18 11:18:58;;;;;;;0.82;0.70;;;;;;;;;;4699579;30;20210;-87
2021/09/18 11:21:27;;;;;;;1.10;1.00;;;;;;;;;;4699794;30;20213;-88
2021/09/18 11:23:57;;;;;;;0.80;0.80;;;;;;;;;;4699810;30;20218;-88
2021/09/18 11:26:47;;;;;;;0.73;0.73;;;;;;;;;;4699999;30;20222;-87
2021/09/18 11:29:27;;;;;;;0.60;0.60;;;;;;;;;;4699365;30;20313;-87
2021/09/18 11:32:14;;;;;;;0.90;0.90;;;;;;;;;;4699799;30;20241;-87
2021/09/18 11:34:45;;;;;;;0.90;0.90;;;;;;;;;;4699307;30;20669;-88
2021/09/18 11:37:20;;;;;;;0.70;0.70;;;;;;;;;;4699178;30;20246;-87
2021/09/18 11:39:52;;;;;;;0.60;0.60;;;;;;;;;;4699090;30;20240;-87
2021/09/18 11:42:26;;;;;;;0.73;0.73;;;;;;;;;;4699289;30;20217;-88
2021/09/18 11:45:00;;;;;;;0.80;0.80;;;;;;;;;;4699245;30;20214;-87
2021/09/18 11:47:34;;;;;;;0.57;0.57;;;;;;;;;;4699042;30;20239;-88
2021/09/18 11:50:02;;;;;;;1.75;0.95;;;;;;;;;;4699544;30;20321;-87
2021/09/18 11:52:40;;;;;;;0.77;0.77;;;;;;;;;;4699156;30;20203;-88
2021/09/18 11:55:25;;;;;;;0.90;0.90;;;;;;;;;;4699146;30;20210;-87
2021/09/18 11:58:09;;;;;;;0.70;0.70;;;;;;;;;;4699345;30;20229;-87
2021/09/18 12:00:39;;;;;;;0.88;0.57;;;;;;;;;;4699123;30;20210;-87
2021/09/18 12:03:07;;;;;;;0.80;0.80;;;;;;;;;;4699142;30;20224;-87
2021/09/18 12:05:35;;;;;;;1.27;0.70;;;;;;;;;;4699209;30;20210;-87
2021/09/18 12:08:03;;;;;;;0.75;0.70;;;;;;;;;;4698865;30;20237;-86
2021/09/18 12:10:31;;;;;;;0.60;0.60;;;;;;;;;;4709760;30;20245;-86
2021/09/18 12:13:06;;;;;;;0.70;0.65;;;;;;;;;;4716422;30;20745;-88
2021/09/18 12:15:36;;;;;;;0.60;0.60;;;;;;;;;;4717599;30;20217;-89
2021/09/18 12:18:07;;;;;;;0.95;0.70;;;;;;;;;;4717130;30;20717;-87
2021/09/18 12:21:03;;;;;;;0.75;0.75;;;;;;;;;;4719250;30;20205;-87
2021/09/18 12:23:33;;;;;;;1.02;0.68;;;;;;;;;;4719899;30;20217;-88
2021/09/18 12:26:06;;;;;;;0.68;0.68;;;;;;;;;;4719766;30;20201;-88
2021/09/18 12:28:37;;;;;;;0.70;0.70;;;;;;;;;;4718946;30;20229;-89
2021/09/18 12:31:17;;;;;;;1.15;1.15;;;;;;;;;;4702513;30;20306;-88
2021/09/18 12:33:47;;;;;;;0.75;0.75;;;;;;;;;;4701856;30;20245;-87
2021/09/18 12:36:17;;;;;;;0.80;0.80;;;;;;;;;;4701453;30;20244;-87
2021/09/18 12:38:57;;;;;;;0.70;0.70;;;;;;;;;;4701471;30;20254;-88
2021/09/18 12:41:35;;;;;;;0.70;0.70;;;;;;;;;;4701817;30;20216;-87
2021/09/18 12:44:07;;;;;;;0.82;0.82;;;;;;;;;;4702534;30;20201;-89
2021/09/18 12:46:41;;;;;;;0.70;0.70;;;;;;;;;;4702261;30;20215;-89
2021/09/18 12:49:10;;;;;;;0.60;0.60;;;;;;;;;;4702341;30;20885;-89
2021/09/18 12:52:01;;;;;;;0.68;0.68;;;;;;;;;;4701926;30;20237;-89
2021/09/18 12:54:43;;;;;;;0.50;0.50;;;;;;;;;;4712370;30;20319;-87
2021/09/18 12:57:12;;;;;;;0.90;0.90;;;;;;;;;;4719805;30;20244;-87
2021/09/18 13:00:08;;;;;;;0.68;0.68;;;;;;;;;;4719653;30;20214;-86
2021/09/18 13:02:36;;;;;;;0.60;0.60;;;;;;;;;;4719829;30;20190;-86
2021/09/18 13:05:05;;;;;;;0.60;0.60;;;;;;;;;;4719573;30;20213;-86
2021/09/18 13:07:33;;;;;;;1.00;1.00;;;;;;;;;;4706412;30;20241;-87
2021/09/18 13:10:09;;;;;;;0.73;0.73;;;;;;;;;;4702404;30;20592;-87
2021/09/18 13:12:53;;;;;;;0.77;0.77;;;;;;;;;;4702422;30;20206;-87
2021/09/18 13:15:32;;;;;;;1.08;0.98;;;;;;;;;;4701855;30;20190;-89
2021/09/18 13:18:00;;;;;;;0.70;0.70;;;;;;;;;;4702018;30;20234;-88
2021/09/18 13:20:30;;;;;;;0.70;0.70;;;;;;;;;;4689019;30;20221;-86
2021/09/18 13:23:00;;;;;;;1.08;0.70;;;;;;;;;;4684630;30;20217;-88
2021/09/18 13:25:28;;;;;;;0.57;0.57;;;;;;;;;;4683447;30;20216;-87
2021/09/18 13:27:55;;;;;;;0.73;0.73;;;;;;;;;;4684649;30;20252;-87
2021/09/18 13:30:31;;;;;;;0.60;0.60;;;;;;;;;;4697463;30;20259;-87
2021/09/18 13:33:05;;;;;;;0.75;0.75;;;;;;;;;;4701726;30;20218;-86
2021/09/18 13:35:37;;;;;;;0.77;0.77;;;;;;;;;;4701760;30;20277;-87
2021/09/18 13:38:04;;;;;;;0.63;0.63;;;;;;;;;;4699001;30;20988;-87
2021/09/18 13:40:32;;;;;;;0.65;0.65;;;;;;;;;;4701916;30;20195;-86
2021/09/18 13:43:01;;;;;;;0.73;0.73;;;;;;;;;;4701773;30;20566;-87
2021/09/18 13:45:42;;;;;;;0.50;0.50;;;;;;;;;;4701715;30;20614;-88
2021/09/18 13:48:15;;;;;;;0.50;0.50;;;;;;;;;;4701442;30;20294;-89
2021/09/18 13:50:43;;;;;;;0.60;0.60;;;;;;;;;;4701461;30;20284;-85
2021/09/18 13:53:12;;;;;;;0.43;0.43;;;;;;;;;;4701659;30;20202;-87
2021/09/18 13:55:41;;;;;;;0.45;0.45;;;;;;;;;;4701722;30;20210;-86
2021/09/18 13:58:09;;;;;;;0.73;0.73;;;;;;;;;;4701084;30;20238;-85
2021/09/18 14:00:37;;;;;;;0.40;0.40;;;;;;;;;;4701252;30;20218;-85
2021/09/18 14:03:06;;;;;;;0.40;0.40;;;;;;;;;;4701042;30;20215;-82
2021/09/18 14:05:34;;;;;;;0.40;0.40;;;;;;;;;;4701160;30;20234;-83
2021/09/18 14:08:01;;;;;;;0.40;0.40;;;;;;;;;;4700765;30;20325;-83
2021/09/18 14:10:29;;;;;;;0.40;0.40;;;;;;;;;;4700650;30;20650;-82
2021/09/18 14:12:56;;;;;;;0.40;0.40;;;;;;;;;;4700727;30;20218;-83
2021/09/18 14:15:24;;;;;;;0.47;0.38;;;;;;;;;;4700795;30;20203;-83
2021/09/18 14:17:51;;;;;;;0.38;0.38;;;;;;;;;;4701205;30;20238;-82
2021/09/18 14:20:22;;;;;;;0.40;0.40;;;;;;;;;;4702628;30;20210;-85
2021/09/18 14:22:51;;;;;;;0.40;0.40;;;;;;;;;;4701662;30;20222;-87
2021/09/18 14:25:21;;;;;;;0.35;0.35;;;;;;;;;;4713969;30;20214;-86
2021/09/18 14:27:55;;;;;;;0.20;0.20;;;;;;;;;;4719029;30;20237;-86
2021/09/18 14:30:28;;;;;;;0.47;0.47;;;;;;;;;;4718884;30;20193;-85
2021/09/18 14:32:57;;;;;;;0.28;0.28;;;;;;;;;;4718561;30;20218;-84
2021/09/18 14:35:26;;;;;;;0.20;0.20;;;;;;;;;;4718656;30;20202;-84
2021/09/18 14:37:55;;;;;;;0.30;0.30;;;;;;;;;;4718808;30;20228;-84
2021/09/18 14:40:31;;;;;;;0.10;0.10;;;;;;;;;;4705893;30;20216;-86
2021/09/18 14:42:59;;;;;;;0.30;0.30;;;;;;;;;;4700955;30;20220;-84
2021/09/18 14:45:31;;;;;;;0.20;0.20;;;;;;;;;;4700510;30;20226;-85
2021/09/18 14:48:05;;;;;;;0.15;0.15;;;;;;;;;;4700962;30;20238;-88
2021/09/18 14:50:34;;;;;;;0.35;0.35;;;;;;;;;;4700986;30;20206;-87
2021/09/18 14:53:04;;;;;;;0.22;0.22;;;;;;;;;;4687191;30;20277;-85
2021/09/18 14:55:33;;;;;;;0.45;0.45;;;;;;;;;;4701176;30;20295;-84
2021/09/18 14:58:01;;;;;;;0.20;0.20;;;;;;;;;;4718353;30;20241;-84